createdAt,value
2022-12-25T00:00:32.827Z,1003.69
2022-12-25T00:01:32.799Z,1003.74
2022-12-25T00:02:32.853Z,1003.69
2022-12-25T00:03:32.919Z,1003.69
2022-12-25T00:04:32.754Z,1003.64
2022-12-25T00:05:32.739Z,1003.67
2022-12-25T00:06:32.742Z,1003.67
2022-12-25T00:07:32.726Z,1003.65
2022-12-25T00:08:32.724Z,1003.60
2022-12-25T00:09:32.699Z,1003.59
2022-12-25T00:10:32.684Z,1003.61
2022-12-25T00:11:32.667Z,1003.65
2022-12-25T00:12:32.649Z,1003.63
2022-12-25T00:13:32.667Z,1003.65
2022-12-25T00:14:32.624Z,1003.62
2022-12-25T00:15:32.609Z,1003.67
2022-12-25T00:16:32.653Z,1003.69
2022-12-25T00:17:32.588Z,1003.64
2022-12-25T00:18:32.584Z,1003.63
2022-12-25T00:19:32.570Z,1003.64
2022-12-25T00:20:32.550Z,1003.57
2022-12-25T00:21:32.539Z,1003.62
2022-12-25T00:22:32.520Z,1003.67
2022-12-25T00:23:32.547Z,1003.65
2022-12-25T00:24:32.486Z,1003.63
2022-12-25T00:25:32.487Z,1003.58
2022-12-25T00:26:32.478Z,1003.58
2022-12-25T00:27:32.456Z,1003.59
2022-12-25T00:28:32.468Z,1003.51
2022-12-25T00:29:32.436Z,1003.57
2022-12-25T00:30:32.423Z,1003.59
2022-12-25T00:31:32.458Z,1003.57
2022-12-25T00:32:32.414Z,1003.61
2022-12-25T00:33:32.416Z,1003.61
2022-12-25T00:34:32.356Z,1003.59
2022-12-25T00:35:32.362Z,1003.57
2022-12-25T00:36:37.789Z,1003.54
2022-12-25T00:37:33.334Z,1003.52
2022-12-25T00:38:32.339Z,1003.51
2022-12-25T00:39:32.308Z,1003.54
2022-12-25T00:40:32.320Z,1003.48
2022-12-25T00:41:32.284Z,1003.51
2022-12-25T00:42:32.264Z,1003.47
2022-12-25T00:43:32.264Z,1003.49
2022-12-25T00:44:32.253Z,1003.48
2022-12-25T00:45:32.313Z,1003.50
2022-12-25T00:46:32.247Z,1003.55
2022-12-25T00:47:32.202Z,1003.57
2022-12-25T00:48:32.207Z,1003.61
2022-12-25T00:49:32.171Z,1003.56
2022-12-25T00:50:32.179Z,1003.60
2022-12-25T00:51:32.150Z,1003.66
2022-12-25T00:52:32.142Z,1003.66
2022-12-25T00:53:32.145Z,1003.67
2022-12-25T00:54:32.133Z,1003.69
2022-12-25T00:55:32.098Z,1003.68
2022-12-25T00:56:32.081Z,1003.67
2022-12-25T00:57:32.088Z,1003.67
2022-12-25T00:58:32.062Z,1003.71
2022-12-25T00:59:32.063Z,1003.69
2022-12-25T01:00:32.036Z,1003.71
2022-12-25T01:01:32.099Z,1003.76
2022-12-25T01:02:32.154Z,1003.77
2022-12-25T01:03:32.005Z,1003.73
2022-12-25T01:04:31.981Z,1003.74
2022-12-25T01:05:31.968Z,1003.68
2022-12-25T01:06:31.956Z,1003.68
2022-12-25T01:07:31.946Z,1003.65
2022-12-25T01:08:31.930Z,1003.65
2022-12-25T01:09:31.918Z,1003.64
2022-12-25T01:10:31.897Z,1003.65
2022-12-25T01:11:31.898Z,1003.70
2022-12-25T01:12:31.881Z,1003.73
2022-12-25T01:13:31.917Z,1003.77
2022-12-25T01:14:31.860Z,1003.78
2022-12-25T01:15:31.843Z,1003.75
2022-12-25T01:16:31.908Z,1003.72
2022-12-25T01:17:31.818Z,1003.77
2022-12-25T01:18:31.808Z,1003.76
2022-12-25T01:19:31.788Z,1003.80
2022-12-25T01:20:31.768Z,1003.79
2022-12-25T01:21:31.777Z,1003.78
2022-12-25T01:22:31.760Z,1003.82
2022-12-25T01:23:31.744Z,1003.88
2022-12-25T01:24:31.727Z,1003.86
2022-12-25T01:25:31.725Z,1003.88
2022-12-25T01:26:31.722Z,1003.87
2022-12-25T01:27:31.689Z,1003.89
2022-12-25T01:28:31.681Z,1003.94
2022-12-25T01:29:31.655Z,1003.97
2022-12-25T01:30:31.720Z,1004.00
2022-12-25T01:31:31.692Z,1004.03
2022-12-25T01:32:31.631Z,1004.02
2022-12-25T01:33:31.641Z,1004.04
2022-12-25T01:34:31.593Z,1004.05
2022-12-25T01:35:31.594Z,1004.04
2022-12-25T01:36:31.562Z,1004.04
2022-12-25T01:37:31.567Z,1004.02
2022-12-25T01:38:31.563Z,1004.07
2022-12-25T01:39:31.523Z,1004.08
2022-12-25T01:40:31.514Z,1004.10
2022-12-25T01:41:31.498Z,1004.16
2022-12-25T01:42:31.493Z,1004.15
2022-12-25T01:43:31.496Z,1004.14
2022-12-25T01:44:31.473Z,1004.17
2022-12-25T01:45:31.501Z,1004.17
2022-12-25T01:46:31.451Z,1004.13
2022-12-25T01:47:31.446Z,1004.15
2022-12-25T01:48:31.438Z,1004.10
2022-12-25T01:49:31.394Z,1004.12
2022-12-25T01:50:31.395Z,1004.12
2022-12-25T01:51:31.385Z,1004.12
2022-12-25T01:52:31.362Z,1004.06
2022-12-25T01:53:31.360Z,1004.05
2022-12-25T01:54:31.347Z,1004.05
2022-12-25T01:55:31.311Z,1004.10
2022-12-25T01:56:31.305Z,1004.12
2022-12-25T01:57:31.291Z,1004.16
2022-12-25T01:58:31.301Z,1004.19
2022-12-25T01:59:31.270Z,1004.17
2022-12-25T02:00:31.255Z,1004.20
2022-12-25T02:01:31.342Z,1004.18
2022-12-25T02:02:31.335Z,1004.21
2022-12-25T02:03:31.336Z,1004.25
2022-12-25T02:04:31.208Z,1004.25
2022-12-25T02:05:31.190Z,1004.26
2022-12-25T02:06:31.178Z,1004.29
2022-12-25T02:07:31.173Z,1004.28
2022-12-25T02:08:31.178Z,1004.25
2022-12-25T02:09:31.138Z,1004.24
2022-12-25T02:10:31.127Z,1004.25
2022-12-25T02:11:31.117Z,1004.20
2022-12-25T02:12:31.121Z,1004.21
2022-12-25T02:13:31.135Z,1004.25
2022-12-25T02:14:31.093Z,1004.25
2022-12-25T02:15:31.064Z,1004.30
2022-12-25T02:16:31.122Z,1004.24
2022-12-25T02:17:31.034Z,1004.24
2022-12-25T02:18:31.068Z,1004.25
2022-12-25T02:19:31.002Z,1004.29
2022-12-25T02:20:30.998Z,1004.23
2022-12-25T02:21:30.990Z,1004.25
2022-12-25T02:22:30.975Z,1004.24
2022-12-25T02:23:30.994Z,1004.23
2022-12-25T02:24:30.942Z,1004.23
2022-12-25T02:25:30.929Z,1004.19
2022-12-25T02:26:30.946Z,1004.23
2022-12-25T02:27:30.933Z,1004.19
2022-12-25T02:28:30.936Z,1004.14
2022-12-25T02:29:30.887Z,1004.16
2022-12-25T02:30:30.892Z,1004.18
2022-12-25T02:31:30.959Z,1004.14
2022-12-25T02:32:30.859Z,1004.12
2022-12-25T02:33:30.868Z,1004.10
2022-12-25T02:34:30.824Z,1004.06
2022-12-25T02:35:30.831Z,1004.06
2022-12-25T02:36:30.795Z,1004.04
2022-12-25T02:37:30.785Z,1004.10
2022-12-25T02:38:30.788Z,1004.09
2022-12-25T02:39:30.750Z,1004.07
2022-12-25T02:40:30.800Z,1004.07
2022-12-25T02:41:30.730Z,1004.03
2022-12-25T02:42:30.722Z,1004.03
2022-12-25T02:43:30.717Z,1004.09
2022-12-25T02:44:30.692Z,1004.07
2022-12-25T02:45:30.690Z,1004.09
2022-12-25T02:46:30.779Z,1004.15
2022-12-25T02:47:30.644Z,1004.13
2022-12-25T02:48:30.648Z,1004.22
2022-12-25T02:49:30.643Z,1004.18
2022-12-25T02:50:30.615Z,1004.22
2022-12-25T02:51:30.615Z,1004.17
2022-12-25T02:52:30.626Z,1004.08
2022-12-25T02:53:30.585Z,1004.02
2022-12-25T02:54:30.560Z,1003.97
2022-12-25T02:55:30.553Z,1003.95
2022-12-25T02:56:30.543Z,1004.02
2022-12-25T02:57:30.540Z,1004.00
2022-12-25T02:58:30.531Z,1004.02
2022-12-25T02:59:30.487Z,1003.96
2022-12-25T03:00:30.487Z,1003.98
2022-12-25T03:01:30.614Z,1003.98
2022-12-25T03:02:30.515Z,1003.99
2022-12-25T03:03:30.509Z,1004.02
2022-12-25T03:04:30.427Z,1004.08
2022-12-25T03:05:30.425Z,1004.07
2022-12-25T03:06:30.417Z,1004.12
2022-12-25T03:07:30.388Z,1004.07
2022-12-25T03:08:30.395Z,1004.05
2022-12-25T03:09:30.366Z,1004.07
2022-12-25T03:10:30.365Z,1004.09
2022-12-25T03:11:30.348Z,1004.12
2022-12-25T03:12:30.329Z,1004.11
2022-12-25T03:13:30.329Z,1004.11
2022-12-25T03:14:30.307Z,1004.14
2022-12-25T03:15:30.292Z,1004.14
2022-12-25T03:16:30.299Z,1004.14
2022-12-25T03:17:30.257Z,1004.10
2022-12-25T03:18:30.288Z,1004.05
2022-12-25T03:19:30.237Z,1004.07
2022-12-25T03:20:30.226Z,1004.08
2022-12-25T03:21:30.224Z,1004.09
2022-12-25T03:22:30.193Z,1004.04
2022-12-25T03:23:30.208Z,1004.08
2022-12-25T03:24:30.174Z,1004.05
2022-12-25T03:25:30.161Z,1004.12
2022-12-25T03:26:30.158Z,1004.11
2022-12-25T03:27:30.137Z,1004.14
2022-12-25T03:28:30.135Z,1004.13
2022-12-25T03:29:31.884Z,1004.15
2022-12-25T03:30:30.154Z,1004.17
2022-12-25T03:31:30.171Z,1004.20
2022-12-25T03:32:30.072Z,1004.24
2022-12-25T03:33:45.015Z,1004.25
2022-12-25T03:34:31.062Z,1004.23
2022-12-25T03:35:30.038Z,1004.18
2022-12-25T03:36:30.032Z,1004.14
2022-12-25T03:37:30.006Z,1004.20
2022-12-25T03:38:30.003Z,1004.22
2022-12-25T03:39:29.982Z,1004.23
2022-12-25T03:40:29.983Z,1004.25
2022-12-25T03:41:29.958Z,1004.20
2022-12-25T03:42:29.948Z,1004.21
2022-12-25T03:43:29.938Z,1004.21
2022-12-25T03:44:29.921Z,1004.20
2022-12-25T03:45:29.914Z,1004.23
2022-12-25T03:46:29.933Z,1004.22
2022-12-25T03:47:29.893Z,1004.28
2022-12-25T03:48:29.871Z,1004.31
2022-12-25T03:49:29.851Z,1004.31
2022-12-25T03:50:29.842Z,1004.33
2022-12-25T03:51:29.831Z,1004.32
2022-12-25T03:52:29.828Z,1004.35
2022-12-25T03:53:29.829Z,1004.32
2022-12-25T03:54:29.789Z,1004.30
2022-12-25T03:55:29.770Z,1004.44
2022-12-25T03:56:29.772Z,1004.48
2022-12-25T03:57:29.763Z,1004.55
2022-12-25T03:58:29.759Z,1004.51
2022-12-25T03:59:29.724Z,1004.58
2022-12-25T04:00:29.717Z,1004.58
2022-12-25T04:01:29.864Z,1004.55
2022-12-25T04:02:29.985Z,1004.55
2022-12-25T04:03:29.711Z,1004.54
2022-12-25T04:04:29.666Z,1004.49
2022-12-25T04:05:29.649Z,1004.45
2022-12-25T04:06:29.634Z,1004.39
2022-12-25T04:07:29.628Z,1004.43
2022-12-25T04:08:29.628Z,1004.36
2022-12-25T04:09:29.596Z,1004.25
2022-12-25T04:10:29.589Z,1004.27
2022-12-25T04:11:29.583Z,1004.34
2022-12-25T04:12:29.585Z,1004.28
2022-12-25T04:13:29.580Z,1004.34
2022-12-25T04:14:29.549Z,1004.22
2022-12-25T04:15:29.579Z,1004.22
2022-12-25T04:16:29.508Z,1004.15
2022-12-25T04:17:29.509Z,1004.20
2022-12-25T04:18:29.485Z,1004.18
2022-12-25T04:19:29.479Z,1004.15
2022-12-25T04:20:29.456Z,1004.23
2022-12-25T04:21:29.447Z,1004.32
2022-12-25T04:22:29.463Z,1004.39
2022-12-25T04:23:29.427Z,1004.42
2022-12-25T04:24:29.422Z,1004.40
2022-12-25T04:25:29.394Z,1004.36
2022-12-25T04:26:29.382Z,1004.42
2022-12-25T04:27:29.377Z,1004.45
2022-12-25T04:28:29.370Z,1004.48
2022-12-25T04:29:29.353Z,1004.49
2022-12-25T04:30:29.335Z,1004.52
2022-12-25T04:31:29.367Z,1004.56
2022-12-25T04:32:29.306Z,1004.55
2022-12-25T04:33:29.326Z,1004.56
2022-12-25T04:34:29.281Z,1004.48
2022-12-25T04:35:29.288Z,1004.47
2022-12-25T04:36:29.281Z,1004.42
2022-12-25T04:37:29.263Z,1004.43
2022-12-25T04:38:29.239Z,1004.45
2022-12-25T04:39:29.211Z,1004.45
2022-12-25T04:40:29.210Z,1004.49
2022-12-25T04:41:29.194Z,1004.49
2022-12-25T04:42:29.168Z,1004.54
2022-12-25T04:43:29.173Z,1004.55
2022-12-25T04:44:29.165Z,1004.52
2022-12-25T04:45:29.162Z,1004.51
2022-12-25T04:46:29.246Z,1004.52
2022-12-25T04:47:29.150Z,1004.52
2022-12-25T04:48:29.124Z,1004.54
2022-12-25T04:49:29.083Z,1004.53
2022-12-25T04:50:29.090Z,1004.53
2022-12-25T04:51:29.059Z,1004.51
2022-12-25T04:52:29.048Z,1004.56
2022-12-25T04:53:29.046Z,1004.53
2022-12-25T04:54:29.031Z,1004.47
2022-12-25T04:55:29.018Z,1004.46
2022-12-25T04:56:29.014Z,1004.43
2022-12-25T04:57:28.978Z,1004.42
2022-12-25T04:58:29.001Z,1004.39
2022-12-25T04:59:28.962Z,1004.44
2022-12-25T05:00:28.948Z,1004.47
2022-12-25T05:01:29.007Z,1004.53
2022-12-25T05:02:29.146Z,1004.49
2022-12-25T05:03:28.944Z,1004.49
2022-12-25T05:04:28.905Z,1004.47
2022-12-25T05:05:28.874Z,1004.43
2022-12-25T05:06:28.877Z,1004.43
2022-12-25T05:07:28.864Z,1004.47
2022-12-25T05:08:28.860Z,1004.36
2022-12-25T05:09:28.836Z,1004.38
2022-12-25T05:10:28.832Z,1004.31
2022-12-25T05:11:28.807Z,1004.31
2022-12-25T05:12:28.806Z,1004.31
2022-12-25T05:13:28.784Z,1004.34
2022-12-25T05:14:28.790Z,1004.32
2022-12-25T05:15:28.754Z,1004.39
2022-12-25T05:16:28.803Z,1004.35
2022-12-25T05:17:28.749Z,1004.37
2022-12-25T05:18:28.734Z,1004.32
2022-12-25T05:19:28.712Z,1004.31
2022-12-25T05:20:30.407Z,1004.35
2022-12-25T05:21:28.672Z,1004.36
2022-12-25T05:22:28.674Z,1004.38
2022-12-25T05:23:28.654Z,1004.34
2022-12-25T05:24:28.660Z,1004.28
2022-12-25T05:25:28.639Z,1004.31
2022-12-25T05:26:28.612Z,1004.32
2022-12-25T05:27:28.596Z,1004.32
2022-12-25T05:28:28.604Z,1004.32
2022-12-25T05:29:28.573Z,1004.30
2022-12-25T05:30:28.572Z,1004.27
2022-12-25T05:31:28.612Z,1004.29
2022-12-25T05:32:28.536Z,1004.28
2022-12-25T05:33:28.542Z,1004.30
2022-12-25T05:34:28.510Z,1004.27
2022-12-25T05:35:28.488Z,1004.22
2022-12-25T05:36:28.495Z,1004.28
2022-12-25T05:37:28.476Z,1004.23
2022-12-25T05:38:28.474Z,1004.21
2022-12-25T05:39:28.454Z,1004.18
2022-12-25T05:40:28.433Z,1004.13
2022-12-25T05:41:33.984Z,1004.09
2022-12-25T05:42:29.403Z,1004.00
2022-12-25T05:43:28.399Z,1004.01
2022-12-25T05:44:28.369Z,1004.02
2022-12-25T05:45:28.367Z,1004.03
2022-12-25T05:46:28.366Z,1004.03
2022-12-25T05:47:28.352Z,1004.08
2022-12-25T05:48:28.328Z,1004.08
2022-12-25T05:49:28.313Z,1004.07
2022-12-25T05:50:28.302Z,1004.12
2022-12-25T05:51:28.288Z,1004.08
2022-12-25T05:52:28.271Z,1004.11
2022-12-25T05:53:28.280Z,1004.08
2022-12-25T05:54:28.260Z,1004.05
2022-12-25T05:55:28.235Z,1004.02
2022-12-25T05:56:28.229Z,1004.03
2022-12-25T05:57:28.225Z,1003.97
2022-12-25T05:58:28.217Z,1003.92
2022-12-25T05:59:28.184Z,1003.91
2022-12-25T06:00:28.175Z,1003.84
2022-12-25T06:01:28.371Z,1003.86
2022-12-25T06:02:28.253Z,1003.85
2022-12-25T06:03:28.316Z,1003.83
2022-12-25T06:04:28.118Z,1003.85
2022-12-25T06:05:28.115Z,1003.83
2022-12-25T06:06:28.095Z,1003.80
2022-12-25T06:07:28.083Z,1003.79
2022-12-25T06:08:28.093Z,1003.81
2022-12-25T06:09:28.053Z,1003.80
2022-12-25T06:10:28.041Z,1003.78
2022-12-25T06:11:28.039Z,1003.83
2022-12-25T06:12:28.025Z,1003.79
2022-12-25T06:13:28.018Z,1003.78
2022-12-25T06:14:27.992Z,1003.79
2022-12-25T06:15:27.993Z,1003.79
2022-12-25T06:16:30.540Z,1003.78
2022-12-25T06:17:28.952Z,1003.80
2022-12-25T06:18:27.940Z,1003.93
2022-12-25T06:19:27.942Z,1003.86
2022-12-25T06:20:27.913Z,1003.91
2022-12-25T06:21:27.904Z,1003.96
2022-12-25T06:22:27.882Z,1004.02
2022-12-25T06:23:27.938Z,1004.00
2022-12-25T06:24:27.857Z,1003.93
2022-12-25T06:25:27.850Z,1003.90
2022-12-25T06:26:27.843Z,1003.86
2022-12-25T06:27:27.819Z,1003.84
2022-12-25T06:28:27.824Z,1003.90
2022-12-25T06:29:27.836Z,1003.89
2022-12-25T06:30:27.769Z,1003.99
2022-12-25T06:31:27.804Z,1003.95
2022-12-25T06:32:27.748Z,1003.96
2022-12-25T06:33:27.760Z,1003.99
2022-12-25T06:34:27.745Z,1003.99
2022-12-25T06:35:27.730Z,1003.98
2022-12-25T06:36:27.720Z,1004.03
2022-12-25T06:37:27.814Z,1004.04
2022-12-25T06:38:27.697Z,1004.05
2022-12-25T06:39:27.671Z,1004.08
2022-12-25T06:40:27.644Z,1004.12
2022-12-25T06:41:27.645Z,1004.12
2022-12-25T06:42:27.653Z,1004.09
2022-12-25T06:43:27.635Z,1004.12
2022-12-25T06:44:27.610Z,1004.09
2022-12-25T06:45:27.609Z,1004.15
2022-12-25T06:46:27.571Z,1004.14
2022-12-25T06:47:27.571Z,1004.17
2022-12-25T06:48:27.564Z,1004.16
2022-12-25T06:49:27.537Z,1004.15
2022-12-25T06:50:27.556Z,1004.10
2022-12-25T06:51:27.520Z,1004.08
2022-12-25T06:52:27.531Z,1004.13
2022-12-25T06:53:27.504Z,1004.10
2022-12-25T06:54:27.510Z,1004.03
2022-12-25T06:55:27.463Z,1004.03
2022-12-25T06:56:27.465Z,1004.01
2022-12-25T06:57:27.431Z,1004.01
2022-12-25T06:58:27.441Z,1004.05
2022-12-25T06:59:27.410Z,1004.07
2022-12-25T07:00:27.389Z,1004.09
2022-12-25T07:01:27.447Z,1004.04
2022-12-25T07:02:27.470Z,1004.12
2022-12-25T07:03:27.427Z,1004.08
2022-12-25T07:04:27.345Z,1004.10
2022-12-25T07:05:27.346Z,1004.13
2022-12-25T07:06:27.312Z,1004.08
2022-12-25T07:07:27.301Z,1004.15
2022-12-25T07:08:27.309Z,1004.20
2022-12-25T07:09:27.320Z,1004.21
2022-12-25T07:10:27.268Z,1004.23
2022-12-25T07:11:27.269Z,1004.25
2022-12-25T07:12:27.241Z,1004.27
2022-12-25T07:13:27.238Z,1004.28
2022-12-25T07:14:27.217Z,1004.27
2022-12-25T07:15:27.203Z,1004.26
2022-12-25T07:16:27.230Z,1004.32
2022-12-25T07:17:27.201Z,1004.35
2022-12-25T07:18:27.257Z,1004.31
2022-12-25T07:19:27.160Z,1004.39
2022-12-25T07:20:27.134Z,1004.37
2022-12-25T07:21:27.137Z,1004.32
2022-12-25T07:22:27.115Z,1004.35
2022-12-25T07:23:27.118Z,1004.37
2022-12-25T07:24:27.082Z,1004.40
2022-12-25T07:25:30.845Z,1004.38
2022-12-25T07:26:28.057Z,1004.40
2022-12-25T07:27:27.074Z,1004.50
2022-12-25T07:28:27.047Z,1004.41
2022-12-25T07:29:27.017Z,1004.41
2022-12-25T07:30:27.016Z,1004.41
2022-12-25T07:31:27.028Z,1004.37
2022-12-25T07:32:26.983Z,1004.41
2022-12-25T07:33:27.001Z,1004.44
2022-12-25T07:34:26.953Z,1004.40
2022-12-25T07:35:26.948Z,1004.39
2022-12-25T07:36:26.928Z,1004.39
2022-12-25T07:37:26.921Z,1004.40
2022-12-25T07:38:26.917Z,1004.36
2022-12-25T07:39:26.890Z,1004.41
2022-12-25T07:40:26.872Z,1004.34
2022-12-25T07:41:26.868Z,1004.34
2022-12-25T07:42:26.852Z,1004.38
2022-12-25T07:43:26.862Z,1004.38
2022-12-25T07:44:26.821Z,1004.41
2022-12-25T07:45:26.825Z,1004.38
2022-12-25T07:46:26.876Z,1004.40
2022-12-25T07:47:26.804Z,1004.40
2022-12-25T07:48:27.042Z,1004.44
2022-12-25T07:49:26.814Z,1004.38
2022-12-25T07:50:26.751Z,1004.30
2022-12-25T07:51:26.765Z,1004.34
2022-12-25T07:52:26.723Z,1004.26
2022-12-25T07:53:26.758Z,1004.26
2022-12-25T07:54:26.693Z,1004.25
2022-12-25T07:55:26.697Z,1004.23
2022-12-25T07:56:26.679Z,1004.25
2022-12-25T07:57:26.658Z,1004.29
2022-12-25T07:58:26.686Z,1004.29
2022-12-25T07:59:26.650Z,1004.29
2022-12-25T08:00:26.626Z,1004.31
2022-12-25T08:01:26.808Z,1004.22
2022-12-25T08:02:26.763Z,1004.21
2022-12-25T08:03:26.810Z,1004.21
2022-12-25T08:04:26.579Z,1004.20
2022-12-25T08:05:26.566Z,1004.17
2022-12-25T08:06:26.542Z,1004.17
2022-12-25T08:07:26.528Z,1004.13
2022-12-25T08:08:26.541Z,1004.14
2022-12-25T08:09:26.503Z,1004.13
2022-12-25T08:10:26.541Z,1004.09
2022-12-25T08:11:26.486Z,1004.06
2022-12-25T08:12:26.471Z,1004.00
2022-12-25T08:13:26.468Z,1003.97
2022-12-25T08:14:26.437Z,1003.95
2022-12-25T08:15:26.426Z,1003.98
2022-12-25T08:16:26.487Z,1003.96
2022-12-25T08:17:26.408Z,1003.94
2022-12-25T08:18:29.962Z,1003.94
2022-12-25T08:19:26.378Z,1003.88
2022-12-25T08:20:26.358Z,1003.91
2022-12-25T08:21:26.363Z,1003.85
2022-12-25T08:22:26.361Z,1003.76
2022-12-25T08:23:26.350Z,1003.82
2022-12-25T08:24:26.327Z,1003.83
2022-12-25T08:25:26.332Z,1003.89
2022-12-25T08:26:26.287Z,1003.84
2022-12-25T08:27:26.292Z,1003.84
2022-12-25T08:28:26.272Z,1003.80
2022-12-25T08:29:26.359Z,1003.72
2022-12-25T08:30:26.391Z,1003.70
2022-12-25T08:31:26.265Z,1003.61
2022-12-25T08:32:26.227Z,1003.61
2022-12-25T08:33:26.235Z,1003.57
2022-12-25T08:34:26.187Z,1003.55
2022-12-25T08:35:26.176Z,1003.59
2022-12-25T08:36:26.168Z,1003.59
2022-12-25T08:37:26.155Z,1003.60
2022-12-25T08:38:26.145Z,1003.62
2022-12-25T08:39:26.124Z,1003.66
2022-12-25T08:40:26.135Z,1003.63
2022-12-25T08:41:26.102Z,1003.63
2022-12-25T08:42:26.074Z,1003.71
2022-12-25T08:43:26.081Z,1003.70
2022-12-25T08:44:26.072Z,1003.69
2022-12-25T08:45:31.213Z,1003.76
2022-12-25T08:46:27.055Z,1003.70
2022-12-25T08:47:26.044Z,1003.63
2022-12-25T08:48:26.006Z,1003.58
2022-12-25T08:49:25.983Z,1003.58
2022-12-25T08:50:25.982Z,1003.56
2022-12-25T08:51:25.964Z,1003.54
2022-12-25T08:52:25.951Z,1003.55
2022-12-25T08:53:25.947Z,1003.55
2022-12-25T08:54:25.913Z,1003.50
2022-12-25T08:55:25.927Z,1003.50
2022-12-25T08:56:25.892Z,1003.52
2022-12-25T08:57:25.895Z,1003.42
2022-12-25T08:58:25.895Z,1003.43
2022-12-25T08:59:25.861Z,1003.41
2022-12-25T09:00:25.856Z,1003.36
2022-12-25T09:01:25.905Z,1003.35
2022-12-25T09:02:25.947Z,1003.32
2022-12-25T09:03:25.849Z,1003.37
2022-12-25T09:04:25.803Z,1003.34
2022-12-25T09:05:25.780Z,1003.35
2022-12-25T09:06:25.761Z,1003.38
2022-12-25T09:07:25.757Z,1003.41
2022-12-25T09:08:25.755Z,1003.48
2022-12-25T09:09:25.731Z,1003.47
2022-12-25T09:10:25.699Z,1003.57
2022-12-25T09:11:25.703Z,1003.60
2022-12-25T09:12:25.678Z,1003.57
2022-12-25T09:13:25.688Z,1003.55
2022-12-25T09:14:25.689Z,1003.48
2022-12-25T09:15:25.660Z,1003.44
2022-12-25T09:16:25.731Z,1003.43
2022-12-25T09:17:25.631Z,1003.40
2022-12-25T09:18:25.630Z,1003.42
2022-12-25T09:19:25.611Z,1003.42
2022-12-25T09:20:25.591Z,1003.39
2022-12-25T09:21:25.580Z,1003.37
2022-12-25T09:22:25.556Z,1003.39
2022-12-25T09:23:25.571Z,1003.33
2022-12-25T09:24:25.528Z,1003.28
2022-12-25T09:25:25.517Z,1003.28
2022-12-25T09:26:25.520Z,1003.31
2022-12-25T09:27:25.489Z,1003.34
2022-12-25T09:28:25.487Z,1003.31
2022-12-25T09:29:25.478Z,1003.27
2022-12-25T09:30:25.485Z,1003.23
2022-12-25T09:31:25.504Z,1003.19
2022-12-25T09:32:25.425Z,1003.17
2022-12-25T09:33:25.436Z,1003.16
2022-12-25T09:34:25.400Z,1003.14
2022-12-25T09:35:25.394Z,1003.13
2022-12-25T09:36:25.388Z,1003.09
2022-12-25T09:37:25.385Z,1003.10
2022-12-25T09:38:25.392Z,1003.03
2022-12-25T09:39:25.347Z,1003.07
2022-12-25T09:40:25.328Z,1003.13
2022-12-25T09:41:25.322Z,1003.13
2022-12-25T09:42:25.290Z,1003.16
2022-12-25T09:43:25.329Z,1003.19
2022-12-25T09:44:25.312Z,1003.14
2022-12-25T09:45:25.271Z,1003.18
2022-12-25T09:46:25.260Z,1003.27
2022-12-25T09:47:25.244Z,1003.30
2022-12-25T09:48:25.228Z,1003.33
2022-12-25T09:49:25.204Z,1003.37
2022-12-25T09:50:25.196Z,1003.39
2022-12-25T09:51:25.221Z,1003.44
2022-12-25T09:52:25.154Z,1003.46
2022-12-25T09:53:25.220Z,1003.45
2022-12-25T09:54:25.133Z,1003.38
2022-12-25T09:55:25.126Z,1003.40
2022-12-25T09:56:25.103Z,1003.34
2022-12-25T09:57:25.088Z,1003.31
2022-12-25T09:58:25.095Z,1003.32
2022-12-25T09:59:25.064Z,1003.35
2022-12-25T10:00:25.073Z,1003.34
2022-12-25T10:01:25.171Z,1003.33
2022-12-25T10:02:25.184Z,1003.33
2022-12-25T10:03:25.080Z,1003.34
2022-12-25T10:04:25.008Z,1003.30
2022-12-25T10:05:24.990Z,1003.24
2022-12-25T10:06:24.990Z,1003.24
2022-12-25T10:07:24.963Z,1003.26
2022-12-25T10:08:24.996Z,1003.23
2022-12-25T10:09:24.964Z,1003.18
2022-12-25T10:10:24.938Z,1003.16
2022-12-25T10:11:24.905Z,1003.11
2022-12-25T10:12:24.905Z,1003.15
2022-12-25T10:13:24.890Z,1003.17
2022-12-25T10:14:24.870Z,1003.10
2022-12-25T10:15:24.864Z,1003.07
2022-12-25T10:16:24.914Z,1003.01
2022-12-25T10:17:24.839Z,1003.07
2022-12-25T10:18:24.832Z,1003.11
2022-12-25T10:19:24.813Z,1003.12
2022-12-25T10:20:24.801Z,1003.11
2022-12-25T10:21:24.786Z,1003.13
2022-12-25T10:22:24.774Z,1003.08
2022-12-25T10:23:24.768Z,1003.01
2022-12-25T10:24:24.743Z,1002.96
2022-12-25T10:25:24.742Z,1002.92
2022-12-25T10:26:24.734Z,1002.96
2022-12-25T10:27:24.703Z,1002.98
2022-12-25T10:28:24.695Z,1003.03
2022-12-25T10:29:24.679Z,1002.98
2022-12-25T10:30:24.683Z,1002.97
2022-12-25T10:31:24.758Z,1002.97
2022-12-25T10:32:24.640Z,1002.91
2022-12-25T10:33:24.786Z,1002.90
2022-12-25T10:34:24.623Z,1002.79
2022-12-25T10:35:24.640Z,1002.79
2022-12-25T10:36:24.596Z,1002.77
2022-12-25T10:37:24.591Z,1002.82
2022-12-25T10:38:24.568Z,1002.80
2022-12-25T10:39:24.541Z,1002.76
2022-12-25T10:40:24.533Z,1002.73
2022-12-25T10:41:24.513Z,1002.73
2022-12-25T10:42:24.497Z,1002.69
2022-12-25T10:43:24.524Z,1002.64
2022-12-25T10:44:24.475Z,1002.62
2022-12-25T10:45:24.459Z,1002.62
2022-12-25T10:46:24.489Z,1002.59
2022-12-25T10:47:24.435Z,1002.63
2022-12-25T10:48:24.436Z,1002.64
2022-12-25T10:49:24.415Z,1002.66
2022-12-25T10:50:24.400Z,1002.68
2022-12-25T10:51:24.384Z,1002.58
2022-12-25T10:52:24.410Z,1002.55
2022-12-25T10:53:24.373Z,1002.57
2022-12-25T10:54:24.365Z,1002.50
2022-12-25T10:55:28.717Z,1002.50
2022-12-25T10:56:25.357Z,1002.48
2022-12-25T10:57:24.303Z,1002.52
2022-12-25T10:58:24.307Z,1002.50
2022-12-25T10:59:24.292Z,1002.54
2022-12-25T11:00:24.264Z,1002.50
2022-12-25T11:01:24.392Z,1002.51
2022-12-25T11:02:24.393Z,1002.49
2022-12-25T11:03:24.343Z,1002.46
2022-12-25T11:04:24.232Z,1002.47
2022-12-25T11:05:24.196Z,1002.39
2022-12-25T11:06:24.224Z,1002.39
2022-12-25T11:07:24.202Z,1002.37
2022-12-25T11:08:24.180Z,1002.33
2022-12-25T11:09:24.156Z,1002.27
2022-12-25T11:10:24.146Z,1002.23
2022-12-25T11:11:24.144Z,1002.19
2022-12-25T11:12:24.389Z,1002.16
2022-12-25T11:13:24.109Z,1002.09
2022-12-25T11:14:24.091Z,1002.12
2022-12-25T11:15:24.071Z,1002.10
2022-12-25T11:16:24.117Z,1002.13
2022-12-25T11:17:24.055Z,1002.05
2022-12-25T11:18:24.066Z,1002.07
2022-12-25T11:19:24.018Z,1002.02
2022-12-25T11:20:24.018Z,1002.00
2022-12-25T11:21:23.993Z,1001.98
2022-12-25T11:22:24.003Z,1001.96
2022-12-25T11:23:23.971Z,1001.95
2022-12-25T11:24:23.959Z,1001.95
2022-12-25T11:25:23.946Z,1001.93
2022-12-25T11:26:23.925Z,1001.92
2022-12-25T11:27:23.915Z,1001.84
2022-12-25T11:28:23.939Z,1001.80
2022-12-25T11:29:23.884Z,1001.79
2022-12-25T11:30:23.875Z,1001.71
2022-12-25T11:31:23.945Z,1001.66
2022-12-25T11:32:24.046Z,1001.56
2022-12-25T11:33:23.857Z,1001.56
2022-12-25T11:34:23.840Z,1001.53
2022-12-25T11:35:23.838Z,1001.49
2022-12-25T11:36:23.830Z,1001.45
2022-12-25T11:37:23.809Z,1001.42
2022-12-25T11:38:23.831Z,1001.44
2022-12-25T11:39:23.765Z,1001.41
2022-12-25T11:40:23.768Z,1001.43
2022-12-25T11:41:23.737Z,1001.41
2022-12-25T11:42:23.712Z,1001.36
2022-12-25T11:43:23.757Z,1001.32
2022-12-25T11:44:23.709Z,1001.36
2022-12-25T11:45:23.703Z,1001.41
2022-12-25T11:46:23.755Z,1001.31
2022-12-25T11:47:23.663Z,1001.31
2022-12-25T11:48:23.681Z,1001.28
2022-12-25T11:49:23.649Z,1001.20
2022-12-25T11:50:23.700Z,1001.19
2022-12-25T11:51:23.593Z,1001.17
2022-12-25T11:52:23.602Z,1001.14
2022-12-25T11:53:39.028Z,1001.15
2022-12-25T11:54:23.576Z,1001.14
2022-12-25T11:55:23.539Z,1001.19
2022-12-25T11:56:23.523Z,1001.17
2022-12-25T11:57:23.532Z,1001.18
2022-12-25T11:58:23.591Z,1001.16
2022-12-25T11:59:23.489Z,1001.20
2022-12-25T12:00:23.502Z,1001.20
2022-12-25T12:01:23.519Z,1001.22
2022-12-25T12:02:25.367Z,1001.18
2022-12-25T12:03:23.549Z,1001.18
2022-12-25T12:04:29.466Z,1001.14
2022-12-25T12:05:24.420Z,1001.22